Time;durP1;ratioP1;P1;durP2;ratioP2;P2;SDS_P1;SDS_P2;PMS_P1;PMS_P2;Temp;Humidity;BMP_temperature;BMP_pressure;BME280_temperature;BME280_humidity;BME280_pressure;Samples;Min_cycle;Max_cycle;Signal;HPM_P1;HPM_P2
2024/01/25 00:03:55;;;;;;;;;;;;;;;13.53;84.01;102380.22;10331303;28;96995;-78
2024/01/25 00:08:58;;;;;;;;;;;;;;;13.52;83.84;102378.44;10321653;28;96680;-78
2024/01/25 00:14:01;;;;;;;;;;;;;;;13.54;84.01;102381.94;10291027;28;97364;-78
2024/01/25 00:19:06;;;;;;;;;;;;;;;13.57;83.67;102380.13;10288971;28;96890;-78
2024/01/25 00:24:09;;;;;;;;;;;;;;;13.52;83.61;102376.69;10289367;28;96659;-78
2024/01/25 00:29:12;;;;;;;;;;;;;;;13.58;83.45;102371.31;10288910;28;96851;-78
2024/01/25 00:34:17;;;;;;;;;;;;;;;13.60;83.02;102371.28;10288912;28;96739;-78
2024/01/25 00:39:21;;;;;;;;;;;;;;;13.63;83.28;102373.84;10288770;28;96665;-78
2024/01/25 00:44:24;;;;;;;;;;;;;;;13.55;83.61;102367.84;10288819;28;97644;-78
2024/01/25 00:49:29;;;;;;;;;;;;;;;13.51;83.47;102377.59;10324248;28;96837;-78
2024/01/25 00:54:32;;;;;;;;;;;;;;;13.47;83.91;102367.97;10336010;28;96693;-78
2024/01/25 00:59:36;;;;;;;;;;;;;;;13.45;83.68;102369.75;10324581;28;97266;-78
2024/01/25 01:04:41;;;;;;;;;;;;;;;13.50;83.56;102362.63;10277781;28;97362;-79
2024/01/25 01:09:50;;;;;;;;;;;;;;;13.43;83.68;102360.13;10295024;28;96838;-78
2024/01/25 01:14:53;;;;;;;;;;;;;;;13.46;83.38;102366.25;10295016;28;97118;-78
2024/01/25 01:19:57;;;;;;;;;;;;;;;13.42;83.41;102364.53;10301176;28;96661;-78
2024/01/25 01:25:02;;;;;;;;;;;;;;;13.42;83.54;102361.88;10335963;28;97565;-79
2024/01/25 01:30:08;;;;;;;;;;;;;;;13.42;83.75;102353.97;10332332;28;96683;-78
2024/01/25 01:35:15;;;;;;;;;;;;;;;13.40;83.83;102350.47;10295188;28;97333;-78
2024/01/25 01:40:19;;;;;;;;;;;;;;;13.40;83.70;102352.22;10294794;28;97595;-78
2024/01/25 01:45:23;;;;;;;;;;;;;;;13.37;83.71;102355.81;10293644;28;97983;-78
2024/01/25 01:50:28;;;;;;;;;;;;;;;13.35;83.82;102351.44;10294064;28;97538;-78
2024/01/25 01:55:32;;;;;;;;;;;;;;;13.36;83.67;102346.13;10295721;28;96617;-78
2024/01/25 02:00:37;;;;;;;;;;;;;;;13.29;84.03;102339.19;10293453;28;96795;-78
2024/01/25 02:05:42;;;;;;;;;;;;;;;13.24;84.03;102341.03;10292940;28;96856;-78
2024/01/25 02:10:45;;;;;;;;;;;;;;;13.28;83.94;102340.09;10298319;28;96761;-78
2024/01/25 02:15:48;;;;;;;;;;;;;;;13.27;83.72;102343.66;10334248;28;97900;-78
2024/01/25 02:20:53;;;;;;;;;;;;;;;13.36;83.62;102340.81;10324249;28;97434;-78
2024/01/25 02:25:58;;;;;;;;;;;;;;;13.33;83.49;102332.97;10252546;28;97415;-78
2024/01/25 02:31:02;;;;;;;;;;;;;;;13.27;83.71;102327.78;10316838;28;98421;-78
2024/01/25 02:36:06;;;;;;;;;;;;;;;13.30;83.46;102319.81;10327771;28;96724;-78
2024/01/25 02:41:11;;;;;;;;;;;;;;;13.26;83.61;102319.91;10291990;28;96803;-78
2024/01/25 02:46:14;;;;;;;;;;;;;;;13.19;84.01;102312.97;10292917;28;96833;-78
2024/01/25 02:51:17;;;;;;;;;;;;;;;13.27;83.59;102311.94;10292160;28;97139;-78
2024/01/25 02:56:21;;;;;;;;;;;;;;;13.23;83.64;102310.22;10291764;28;97193;-78
2024/01/25 03:01:24;;;;;;;;;;;;;;;13.19;83.78;102307.69;10291069;28;96815;-78
2024/01/25 03:06:28;;;;;;;;;;;;;;;13.13;84.21;102308.66;10291497;28;96635;-77
2024/01/25 03:11:32;;;;;;;;;;;;;;;13.08;84.08;102304.34;10291389;28;96580;-78
2024/01/25 03:16:35;;;;;;;;;;;;;;;13.08;84.34;102302.59;10289963;28;97341;-77
2024/01/25 03:21:38;;;;;;;;;;;;;;;13.09;84.44;102301.66;10291727;28;97241;-78
2024/01/25 03:26:43;;;;;;;;;;;;;;;13.06;84.12;102299.09;10290803;28;97223;-78
2024/01/25 03:31:46;;;;;;;;;;;;;;;13.07;84.35;102300.81;10290441;28;96818;-78
2024/01/25 03:36:50;;;;;;;;;;;;;;;13.06;84.31;102301.72;10294243;28;97410;-78
2024/01/25 03:41:54;;;;;;;;;;;;;;;13.07;84.09;102292.03;10290583;28;96741;-78
2024/01/25 03:46:57;;;;;;;;;;;;;;;13.03;84.10;102280.66;10289973;28;96681;-78
2024/01/25 03:52:01;;;;;;;;;;;;;;;13.02;84.01;102276.25;10289644;28;97148;-78
2024/01/25 03:57:05;;;;;;;;;;;;;;;13.00;84.30;102278.03;10330912;28;97539;-78
2024/01/25 04:02:09;;;;;;;;;;;;;;;13.01;84.16;102265.69;10306454;28;96631;-78
2024/01/25 04:07:13;;;;;;;;;;;;;;;12.97;84.35;102261.34;10290016;28;96604;-78
2024/01/25 04:12:21;;;;;;;;;;;;;;;12.95;84.42;102258.75;10290131;28;96729;-78
2024/01/25 04:17:24;;;;;;;;;;;;;;;12.94;84.47;102258.78;10289235;28;97724;-78
2024/01/25 04:22:27;;;;;;;;;;;;;;;12.93;84.40;102263.19;10289364;28;96846;-78
2024/01/25 04:27:32;;;;;;;;;;;;;;;12.92;84.38;102264.09;10289978;28;96817;-78
2024/01/25 04:32:35;;;;;;;;;;;;;;;12.86;84.72;102245.69;10289192;28;96716;-78
2024/01/25 04:37:38;;;;;;;;;;;;;;;12.87;84.64;102250.09;10288789;28;96783;-78
2024/01/25 04:42:43;;;;;;;;;;;;;;;12.88;84.59;102250.97;10287881;28;97298;-78
2024/01/25 04:47:47;;;;;;;;;;;;;;;12.89;84.59;102240.38;10289180;28;96812;-78
2024/01/25 04:52:52;;;;;;;;;;;;;;;12.88;84.48;102250.97;10288816;28;96700;-78
2024/01/25 04:57:58;;;;;;;;;;;;;;;12.83;84.57;102245.75;10288336;28;96869;-78
2024/01/25 05:03:02;;;;;;;;;;;;;;;12.83;84.43;102245.75;10288507;28;97287;-78
2024/01/25 05:08:08;;;;;;;;;;;;;;;12.79;84.56;102243.19;10288554;28;96777;-78
2024/01/25 05:13:15;;;;;;;;;;;;;;;12.79;84.39;102241.41;10288537;28;97160;-78
2024/01/25 05:18:18;;;;;;;;;;;;;;;12.81;84.35;102229.03;10289274;28;96776;-78
2024/01/25 05:23:21;;;;;;;;;;;;;;;12.85;83.73;102233.38;10286258;28;97249;-78
2024/01/25 05:28:25;;;;;;;;;;;;;;;12.81;84.27;102225.56;10288054;28;97198;-78
2024/01/25 05:33:29;;;;;;;;;;;;;;;12.79;84.32;102232.63;10286782;28;96718;-78
2024/01/25 05:38:33;;;;;;;;;;;;;;;12.80;84.07;102229.06;10290242;28;96627;-78
2024/01/25 05:43:38;;;;;;;;;;;;;;;12.78;84.16;102233.50;10294167;28;96719;-78
2024/01/25 05:48:41;;;;;;;;;;;;;;;12.75;84.28;102229.16;10294513;28;97412;-78
2024/01/25 05:53:44;;;;;;;;;;;;;;;12.72;84.42;102226.59;10316507;28;97418;-78
2024/01/25 05:58:49;;;;;;;;;;;;;;;12.69;84.58;102225.78;10307744;28;97182;-77
2024/01/25 06:03:52;;;;;;;;;;;;;;;12.69;84.52;102226.63;10293542;28;96731;-78
2024/01/25 06:08:56;;;;;;;;;;;;;;;12.68;84.69;102234.56;10294725;28;96768;-78
2024/01/25 06:14:17;;;;;;;;;;;;;;;12.67;84.53;102236.34;10293332;28;99200;-77
2024/01/25 06:19:21;;;;;;;;;;;;;;;12.68;84.55;102246.03;10292918;28;97236;-79
2024/01/25 06:24:25;;;;;;;;;;;;;;;12.68;84.28;102240.72;10291836;28;96902;-78
2024/01/25 06:29:30;;;;;;;;;;;;;;;12.65;84.63;102258.41;10293542;28;96741;-78
2024/01/25 06:34:33;;;;;;;;;;;;;;;12.66;84.38;102247.81;10292688;28;97124;-79
2024/01/25 06:39:37;;;;;;;;;;;;;;;12.68;84.23;102253.06;10292326;28;97272;-78
2024/01/25 06:44:41;;;;;;;;;;;;;;;12.64;84.33;102246.94;10313497;28;97210;-78
2024/01/25 06:49:47;;;;;;;;;;;;;;;12.63;84.48;102263.69;10332719;28;96812;-78
2024/01/25 06:54:51;;;;;;;;;;;;;;;12.61;84.43;102259.31;10319471;28;97151;-77
2024/01/25 06:59:56;;;;;;;;;;;;;;;12.65;84.32;102266.31;10293148;28;96652;-77
2024/01/25 07:05:01;;;;;;;;;;;;;;;12.56;84.68;102262.03;10291727;28;96982;-78
2024/01/25 07:10:05;;;;;;;;;;;;;;;12.60;84.50;102252.28;10291796;28;97540;-78
2024/01/25 07:15:10;;;;;;;;;;;;;;;12.56;84.43;102256.75;10299860;22;96936;-78
2024/01/25 07:20:13;;;;;;;;;;;;;;;12.57;84.39;102263.75;10367046;28;96861;-78
2024/01/25 07:25:17;;;;;;;;;;;;;;;12.53;84.52;102246.25;10373224;28;97095;-78
2024/01/25 07:30:21;;;;;;;;;;;;;;;12.49;84.68;102255.97;10373378;28;96757;-78
2024/01/25 07:35:25;;;;;;;;;;;;;;;12.47;84.66;102249.84;10363817;28;97071;-78
2024/01/25 07:40:28;;;;;;;;;;;;;;;12.50;84.72;102263.00;10373087;28;97093;-78
2024/01/25 07:45:33;;;;;;;;;;;;;;;12.49;84.44;102261.25;10372614;28;96767;-78
2024/01/25 07:50:37;;;;;;;;;;;;;;;12.49;84.61;102278.88;10373326;28;96847;-78
2024/01/25 07:55:40;;;;;;;;;;;;;;;12.47;84.86;102262.16;10372232;28;96819;-78
2024/01/25 08:00:45;;;;;;;;;;;;;;;12.53;84.52;102275.28;10372703;28;97191;-78
2024/01/25 08:05:49;;;;;;;;;;;;;;;12.49;83.94;102277.09;10371105;28;96737;-78
2024/01/25 08:10:53;;;;;;;;;;;;;;;12.52;84.19;102282.31;10372282;28;97366;-78
2024/01/25 08:15:58;;;;;;;;;;;;;;;12.54;84.31;102279.66;10345087;28;97495;-78
2024/01/25 08:21:01;;;;;;;;;;;;;;;12.51;84.39;102271.78;10330682;28;97387;-78
2024/01/25 08:26:09;;;;;;;;;;;;;;;12.60;83.95;102274.31;10346070;28;98088;-78
2024/01/25 08:31:15;;;;;;;;;;;;;;;12.57;83.81;102279.59;10367361;28;96769;-78
2024/01/25 08:36:20;;;;;;;;;;;;;;;12.62;83.73;102284.84;10293226;28;96798;-78
2024/01/25 08:41:23;;;;;;;;;;;;;;;12.61;83.74;102276.03;10296369;28;96887;-78
2024/01/25 08:46:28;;;;;;;;;;;;;;;12.66;83.75;102273.34;10370929;28;96727;-78
2024/01/25 08:51:31;;;;;;;;;;;;;;;12.70;83.33;102275.03;10371263;28;96701;-78
2024/01/25 08:56:34;;;;;;;;;;;;;;;12.70;83.43;102277.69;10369871;28;96611;-78
2024/01/25 09:01:39;;;;;;;;;;;;;;;12.71;83.12;102268.84;10370724;28;96693;-78
2024/01/25 09:06:42;;;;;;;;;;;;;;;12.76;82.89;102282.88;10370858;28;97394;-78
2024/01/25 09:11:45;;;;;;;;;;;;;;;12.86;82.80;102272.09;10362516;28;97311;-78
2024/01/25 09:16:50;;;;;;;;;;;;;;;12.84;82.61;102281.84;10350362;28;96811;-78
2024/01/25 09:21:53;;;;;;;;;;;;;;;12.86;82.46;102293.25;10377796;28;97299;-78
2024/01/25 09:26:58;;;;;;;;;;;;;;;12.90;82.27;102286.13;10377337;28;97413;-78
2024/01/25 09:32:04;;;;;;;;;;;;;;;13.05;81.64;102297.31;10350254;28;97262;-78
2024/01/25 09:37:07;;;;;;;;;;;;;;;13.12;81.29;102303.41;10294588;28;96755;-78
2024/01/25 09:42:12;;;;;;;;;;;;;;;13.09;81.24;102291.09;10294360;28;96690;-78
2024/01/25 09:47:19;;;;;;;;;;;;;;;13.09;80.86;102306.06;10292990;28;96678;-76
2024/01/25 09:52:25;;;;;;;;;;;;;;;13.01;81.23;102298.28;10350415;28;97261;-77
2024/01/25 09:57:30;;;;;;;;;;;;;;;13.16;80.84;102310.34;10376384;28;96659;-78
2024/01/25 10:02:35;;;;;;;;;;;;;;;13.25;80.59;102312.84;10376376;28;96630;-78
2024/01/25 10:07:41;;;;;;;;;;;;;;;13.24;80.58;102322.53;10375675;28;96611;-78
2024/01/25 10:12:45;;;;;;;;;;;;;;;13.31;80.02;102315.41;10342377;28;97265;-78
2024/01/25 10:17:51;;;;;;;;;;;;;;;13.45;79.70;102319.50;10334049;28;97489;-78
2024/01/25 10:23:14;;;;;;;;;;;;;;;13.49;79.33;102309.75;10337212;28;97150;-78
2024/01/25 10:28:17;;;;;;;;;;;;;;;13.57;79.07;102323.72;10360751;28;96747;-78
2024/01/25 10:33:22;;;;;;;;;;;;;;;13.58;78.94;102328.97;10321652;28;97412;-78
2024/01/25 10:38:26;;;;;;;;;;;;;;;13.84;78.57;102335.53;10291396;28;96691;-78
2024/01/25 10:43:30;;;;;;;;;;;;;;;13.88;78.24;102334.56;10349959;28;96874;-78
2024/01/25 10:48:37;;;;;;;;;;;;;;;14.15;77.14;102340.19;10374606;28;96715;-78
2024/01/25 10:53:41;;;;;;;;;;;;;;;14.05;76.84;102336.00;10375521;28;97248;-78
2024/01/25 10:58:44;;;;;;;;;;;;;;;13.99;77.32;102340.50;10374256;28;97227;-78
2024/01/25 11:03:48;;;;;;;;;;;;;;;13.99;77.36;102336.09;10374211;28;97361;-78
2024/01/25 11:08:52;;;;;;;;;;;;;;;13.86;77.67;102329.31;10338113;28;96944;-78
2024/01/25 11:13:56;;;;;;;;;;;;;;;14.00;77.18;102326.38;10333511;28;96667;-78
2024/01/25 11:19:05;;;;;;;;;;;;;;;14.21;77.23;102324.16;10372800;28;96848;-78
2024/01/25 11:24:13;;;;;;;;;;;;;;;14.23;76.81;102317.06;10349338;28;97456;-78
2024/01/25 11:29:16;;;;;;;;;;;;;;;14.11;77.17;102312.03;10290728;28;96779;-78
2024/01/25 11:34:21;;;;;;;;;;;;;;;14.13;76.19;102309.34;10325208;28;97108;-78
2024/01/25 11:39:25;;;;;;;;;;;;;;;14.17;76.38;102297.78;10331294;28;96675;-78
2024/01/25 11:44:28;;;;;;;;;;;;;;;14.22;76.44;102295.91;10331384;28;96776;-78
2024/01/25 11:49:35;;;;;;;;;;;;;;;14.14;76.12;102282.84;10344830;28;96864;-78
2024/01/25 11:54:38;;;;;;;;;;;;;;;14.17;76.16;102264.25;10372552;28;97679;-78
2024/01/25 11:59:45;;;;;;;;;;;;;;;14.21;76.06;102268.56;10372433;28;96736;-78
2024/01/25 12:04:53;;;;;;;;;;;;;;;14.07;75.96;102275.09;10356430;28;96634;-78
2024/01/25 12:10:00;;;;;;;;;;;;;;;14.07;76.51;102251.25;10371399;28;96752;-78
2024/01/25 12:15:05;;;;;;;;;;;;;;;14.16;75.94;102245.75;10371452;28;97335;-77
2024/01/25 12:20:12;;;;;;;;;;;;;;;14.27;75.36;102231.34;10357445;28;97080;-78
2024/01/25 12:25:15;;;;;;;;;;;;;;;14.23;75.30;102234.13;10357542;28;96801;-78
2024/01/25 12:30:18;;;;;;;;;;;;;;;14.30;75.12;102227.75;10371461;28;96641;-78
2024/01/25 12:35:23;;;;;;;;;;;;;;;14.43;75.18;102215.97;10342080;28;97013;-79
2024/01/25 12:40:26;;;;;;;;;;;;;;;14.51;74.71;102212.22;10341555;28;96621;-78
2024/01/25 12:45:30;;;;;;;;;;;;;;;14.33;74.32;102212.66;10370824;28;96844;-78
2024/01/25 12:50:34;;;;;;;;;;;;;;;14.46;74.29;102203.53;10377587;28;96703;-78
2024/01/25 12:55:38;;;;;;;;;;;;;;;14.44;74.07;102196.50;10379195;28;96742;-78
2024/01/25 13:00:43;;;;;;;;;;;;;;;14.46;73.71;102197.34;10378160;28;96690;-78
2024/01/25 13:05:48;;;;;;;;;;;;;;;14.58;73.98;102184.69;10337988;28;96786;-78
2024/01/25 13:10:51;;;;;;;;;;;;;;;14.74;73.65;102172.78;10335640;28;96792;-78
2024/01/25 13:15:54;;;;;;;;;;;;;;;14.75;72.94;102166.56;10360082;28;97762;-78
2024/01/25 13:20:59;;;;;;;;;;;;;;;14.98;72.89;102155.34;10342373;28;96715;-78
2024/01/25 13:26:02;;;;;;;;;;;;;;;14.96;72.46;102146.56;10336487;28;97014;-78
2024/01/25 13:31:05;;;;;;;;;;;;;;;14.91;72.32;102143.16;10345466;28;97258;-78
2024/01/25 13:36:13;;;;;;;;;;;;;;;14.97;71.84;102129.75;10340926;28;96796;-78
2024/01/25 13:41:16;;;;;;;;;;;;;;;14.93;72.35;102133.38;10335662;28;96669;-78
2024/01/25 13:46:19;;;;;;;;;;;;;;;15.03;71.53;102124.25;10336420;28;96980;-78
2024/01/25 13:51:26;;;;;;;;;;;;;;;15.99;68.79;102112.50;10371942;28;96739;-78
2024/01/25 13:56:29;;;;;;;;;;;;;;;16.12;67.79;102107.66;10376885;28;96840;-78
2024/01/25 14:01:33;;;;;;;;;;;;;;;16.04;67.51;102101.72;10351972;28;97451;-78
2024/01/25 14:06:37;;;;;;;;;;;;;;;16.14;66.34;102105.81;10356269;28;96777;-78
2024/01/25 14:11:41;;;;;;;;;;;;;;;16.16;67.16;102102.19;10376188;28;96720;-78
2024/01/25 14:16:44;;;;;;;;;;;;;;;15.82;67.46;102102.41;10357512;28;97254;-78
2024/01/25 14:21:50;;;;;;;;;;;;;;;15.50;68.96;102088.41;10340939;28;96615;-78
2024/01/25 14:26:56;;;;;;;;;;;;;;;15.35;69.14;102099.50;10332998;28;96933;-78
2024/01/25 14:31:59;;;;;;;;;;;;;;;15.53;68.75;102097.16;10334377;28;97999;-78
2024/01/25 14:37:05;;;;;;;;;;;;;;;15.79;68.00;102091.91;10335089;28;97104;-78
2024/01/25 14:42:10;;;;;;;;;;;;;;;15.90;67.67;102095.09;10368045;28;96701;-78
2024/01/25 14:47:17;;;;;;;;;;;;;;;15.90;67.41;102087.13;10374428;28;96895;-78
2024/01/25 14:52:21;;;;;;;;;;;;;;;16.30;66.95;102089.31;10373898;28;96967;-78
2024/01/25 14:57:24;;;;;;;;;;;;;;;15.86;67.75;102092.56;10373993;28;97119;-78
2024/01/25 15:02:27;;;;;;;;;;;;;;;15.42;68.93;102093.97;10374300;28;96828;-78
2024/01/25 15:07:32;;;;;;;;;;;;;;;15.14;69.77;102077.09;10374544;28;96659;-78
2024/01/25 15:12:35;;;;;;;;;;;;;;;15.35;69.69;102083.59;10373883;28;97134;-78
2024/01/25 15:17:38;;;;;;;;;;;;;;;15.17;70.91;102087.63;10364432;28;96850;-78
2024/01/25 15:22:43;;;;;;;;;;;;;;;15.01;70.37;102074.88;10332683;28;96646;-78
2024/01/25 15:27:46;;;;;;;;;;;;;;;14.82;70.96;102068.34;10332943;28;96776;-78
2024/01/25 15:32:49;;;;;;;;;;;;;;;14.71;71.95;102066.00;10355734;28;96767;-78
2024/01/25 15:37:53;;;;;;;;;;;;;;;14.75;72.10;102057.91;10331568;28;97463;-78
2024/01/25 15:42:58;;;;;;;;;;;;;;;14.61;72.58;102052.13;10331094;28;97083;-78
2024/01/25 15:48:01;;;;;;;;;;;;;;;14.48;72.81;102053.38;10348566;28;97880;-78
2024/01/25 15:53:07;;;;;;;;;;;;;;;14.53;73.08;102061.19;10370202;28;96687;-78
2024/01/25 15:58:10;;;;;;;;;;;;;;;14.52;73.32;102052.34;10331471;28;96597;-78
2024/01/25 16:03:13;;;;;;;;;;;;;;;14.43;73.66;102052.63;10332951;28;96780;-78
2024/01/25 16:08:19;;;;;;;;;;;;;;;14.27;73.78;102039.81;10372367;28;96647;-78
2024/01/25 16:13:22;;;;;;;;;;;;;;;14.18;74.39;102053.28;10346078;28;96655;-78
2024/01/25 16:18:25;;;;;;;;;;;;;;;14.11;74.66;102047.28;10331070;28;96807;-78
2024/01/25 16:23:30;;;;;;;;;;;;;;;14.07;74.89;102044.78;10359202;28;96923;-78
2024/01/25 16:28:33;;;;;;;;;;;;;;;13.92;75.45;102051.28;10371972;28;96731;-78
2024/01/25 16:33:36;;;;;;;;;;;;;;;13.89;76.06;102043.41;10355833;28;96674;-78
2024/01/25 16:38:41;;;;;;;;;;;;;;;13.78;76.36;102047.25;10343962;28;97166;-78
2024/01/25 16:43:44;;;;;;;;;;;;;;;13.83;76.06;102040.06;10371278;28;96760;-78
2024/01/25 16:48:47;;;;;;;;;;;;;;;13.69;76.77;102046.53;10371093;28;96639;-78
2024/01/25 16:53:52;;;;;;;;;;;;;;;13.64;77.08;102050.19;10345482;28;96684;-78
2024/01/25 16:58:55;;;;;;;;;;;;;;;13.61;77.27;102047.63;10370298;28;96698;-78
2024/01/25 17:03:58;;;;;;;;;;;;;;;13.50;77.94;102032.00;10370887;28;96759;-77
2024/01/25 17:09:03;;;;;;;;;;;;;;;13.48;77.74;102041.75;10363615;28;96706;-78
2024/01/25 17:14:06;;;;;;;;;;;;;;;13.46;78.30;102048.00;10354792;28;96744;-78
2024/01/25 17:19:09;;;;;;;;;;;;;;;13.32;78.74;102039.50;10370279;28;96663;-78
2024/01/25 17:24:14;;;;;;;;;;;;;;;13.35;78.62;102044.72;10351439;28;96685;-78
2024/01/25 17:29:17;;;;;;;;;;;;;;;13.26;79.13;102050.22;10340087;28;96703;-78
2024/01/25 17:34:20;;;;;;;;;;;;;;;13.25;79.44;102054.63;10351275;28;97512;-78
2024/01/25 17:39:25;;;;;;;;;;;;;;;13.18;79.79;102065.38;10336310;28;97187;-78
2024/01/25 17:44:28;;;;;;;;;;;;;;;13.13;79.93;102057.53;10335474;28;97352;-77
2024/01/25 17:49:31;;;;;;;;;;;;;;;13.10;80.06;102067.31;10368006;28;96731;-78
2024/01/25 17:54:36;;;;;;;;;;;;;;;13.09;80.03;102069.06;10335199;28;96682;-78
2024/01/25 17:59:39;;;;;;;;;;;;;;;13.07;80.33;102073.53;10335951;28;97055;-78
2024/01/25 18:04:42;;;;;;;;;;;;;;;13.01;80.49;102075.44;10357393;28;96606;-78
2024/01/25 18:09:46;;;;;;;;;;;;;;;12.97;80.59;102068.44;10344252;28;96817;-78
2024/01/25 18:14:49;;;;;;;;;;;;;;;12.99;80.84;102064.88;10333258;28;97277;-78
2024/01/25 18:19:53;;;;;;;;;;;;;;;12.97;81.18;102061.41;10341690;28;96695;-78
2024/01/25 18:24:58;;;;;;;;;;;;;;;12.95;81.09;102063.19;10375550;28;96826;-78
2024/01/25 18:30:02;;;;;;;;;;;;;;;12.92;81.17;102058.00;10375639;28;96613;-78
2024/01/25 18:35:06;;;;;;;;;;;;;;;12.93;81.06;102070.28;10348334;28;97592;-78
2024/01/25 18:40:11;;;;;;;;;;;;;;;12.93;81.12;102072.94;10368492;28;96704;-78
2024/01/25 18:45:14;;;;;;;;;;;;;;;12.90;81.16;102073.00;10374384;28;96720;-78
2024/01/25 18:50:18;;;;;;;;;;;;;;;12.87;81.40;102073.06;10346654;28;96894;-79
2024/01/25 18:55:25;;;;;;;;;;;;;;;12.79;82.11;102072.31;10353328;28;96628;-78
2024/01/25 19:00:29;;;;;;;;;;;;;;;12.81;82.27;102069.69;10374999;28;96994;-78
2024/01/25 19:05:38;;;;;;;;;;;;;;;12.77;82.08;102084.72;10356032;28;96634;-78
2024/01/25 19:10:45;;;;;;;;;;;;;;;12.80;81.90;102087.28;10339005;28;97285;-78
2024/01/25 19:15:50;;;;;;;;;;;;;;;12.79;82.05;102095.25;10373586;28;96605;-78
2024/01/25 19:20:55;;;;;;;;;;;;;;;12.79;82.08;102105.81;10347912;28;96695;-78
2024/01/25 19:26:02;;;;;;;;;;;;;;;12.73;81.84;102096.25;10332555;28;96615;-78
2024/01/25 19:31:06;;;;;;;;;;;;;;;12.76;82.33;102106.75;10366846;28;97289;-78
2024/01/25 19:36:09;;;;;;;;;;;;;;;12.76;82.48;102105.88;10337364;28;96598;-78
2024/01/25 19:41:14;;;;;;;;;;;;;;;12.75;82.53;102101.50;10332701;28;96674;-78
2024/01/25 19:46:17;;;;;;;;;;;;;;;12.70;82.28;102098.94;10342974;22;98467;-78
2024/01/25 19:51:20;;;;;;;;;;;;;;;12.70;82.52;102096.31;10331886;28;97390;-78
2024/01/25 19:56:28;;;;;;;;;;;;;;;12.69;82.69;102102.47;10329171;28;97577;-78
2024/01/25 20:01:31;;;;;;;;;;;;;;;12.71;82.73;102098.03;10335626;28;96794;-78
2024/01/25 20:06:35;;;;;;;;;;;;;;;12.70;82.72;102096.31;10372194;28;96612;-78
2024/01/25 20:11:40;;;;;;;;;;;;;;;12.67;82.80;102103.41;10331033;28;96687;-78
2024/01/25 20:16:43;;;;;;;;;;;;;;;12.65;82.98;102097.28;10330354;28;97328;-78
2024/01/25 20:21:48;;;;;;;;;;;;;;;12.68;82.74;102098.09;10362380;28;97313;-78
2024/01/25 20:26:53;;;;;;;;;;;;;;;12.67;82.79;102100.78;10306431;28;98268;-78
2024/01/25 20:31:56;;;;;;;;;;;;;;;12.64;83.30;102108.69;10291113;28;97002;-78
2024/01/25 20:37:00;;;;;;;;;;;;;;;12.63;83.13;102101.69;10346886;28;96758;-78
2024/01/25 20:42:06;;;;;;;;;;;;;;;12.63;83.56;102102.56;10372070;28;97235;-78
2024/01/25 20:47:11;;;;;;;;;;;;;;;12.67;82.90;102109.53;10339059;28;97705;-78
2024/01/25 20:52:14;;;;;;;;;;;;;;;12.66;83.34;102107.81;10331936;28;96673;-78
2024/01/25 20:57:19;;;;;;;;;;;;;;;12.64;83.58;102106.97;10372033;28;96945;-78
2024/01/25 21:02:23;;;;;;;;;;;;;;;12.68;83.30;102108.66;10340984;28;96991;-78
2024/01/25 21:07:27;;;;;;;;;;;;;;;12.72;83.19;102113.00;10329833;28;96719;-78
2024/01/25 21:12:34;;;;;;;;;;;;;;;12.66;83.17;102110.47;10366062;28;96640;-78
2024/01/25 21:17:38;;;;;;;;;;;;;;;12.74;83.03;102105.03;10344289;28;96698;-78
2024/01/25 21:22:41;;;;;;;;;;;;;;;12.70;83.17;102093.66;10337600;28;97177;-78
2024/01/25 21:27:46;;;;;;;;;;;;;;;12.66;83.09;102101.66;10351084;28;97219;-78
2024/01/25 21:32:50;;;;;;;;;;;;;;;12.75;82.94;102099.72;10368442;28;96834;-78
2024/01/25 21:37:53;;;;;;;;;;;;;;;12.70;83.19;102104.22;10334824;28;97296;-78
2024/01/25 21:42:58;;;;;;;;;;;;;;;12.65;83.13;102106.09;10335507;28;96830;-78
2024/01/25 21:48:06;;;;;;;;;;;;;;;12.67;83.38;102096.34;10376503;28;97503;-78
2024/01/25 21:53:09;;;;;;;;;;;;;;;12.63;83.44;102099.94;10377259;28;97386;-78
2024/01/25 21:58:14;;;;;;;;;;;;;;;12.64;83.19;102096.41;10366490;28;96878;-78
2024/01/25 22:03:19;;;;;;;;;;;;;;;12.64;83.17;102106.06;10360020;28;96747;-78
2024/01/25 22:08:23;;;;;;;;;;;;;;;12.68;83.28;102107.78;10334907;28;97318;-78
2024/01/25 22:13:30;;;;;;;;;;;;;;;12.62;83.41;102100.81;10335584;28;96734;-78
2024/01/25 22:18:35;;;;;;;;;;;;;;;12.58;83.60;102105.28;10348084;28;97179;-78
2024/01/25 22:23:39;;;;;;;;;;;;;;;12.62;83.29;102098.16;10375748;28;97019;-77
2024/01/25 22:28:45;;;;;;;;;;;;;;;12.63;83.42;102091.13;10374526;28;97519;-78
2024/01/25 22:33:49;;;;;;;;;;;;;;;12.60;83.43;102094.72;10358719;28;97377;-77
2024/01/25 22:38:53;;;;;;;;;;;;;;;12.61;83.43;102096.44;10374215;28;96719;-78
2024/01/25 22:44:00;;;;;;;;;;;;;;;12.56;83.59;102093.00;10335379;28;96738;-78
2024/01/25 22:49:04;;;;;;;;;;;;;;;12.55;83.93;102100.06;10333117;28;97305;-78
2024/01/25 22:54:07;;;;;;;;;;;;;;;12.51;83.81;102097.50;10359757;28;96691;-78
2024/01/25 22:59:12;;;;;;;;;;;;;;;12.48;84.06;102100.19;10338638;28;96722;-78
2024/01/25 23:04:15;;;;;;;;;;;;;;;12.46;84.08;102099.38;10333989;28;96788;-78
2024/01/25 23:09:19;;;;;;;;;;;;;;;12.47;84.22;102109.03;10344037;28;97234;-78
2024/01/25 23:14:24;;;;;;;;;;;;;;;12.45;84.09;102110.81;10346860;28;97298;-78
2024/01/25 23:19:27;;;;;;;;;;;;;;;12.48;84.00;102118.66;10331718;28;97114;-78
2024/01/25 23:24:32;;;;;;;;;;;;;;;12.47;83.92;102116.94;10323921;28;96907;-78
2024/01/25 23:29:37;;;;;;;;;;;;;;;12.53;83.61;102115.06;10367651;28;96641;-78
2024/01/25 23:34:40;;;;;;;;;;;;;;;12.50;83.67;102125.69;10348204;28;96925;-78
2024/01/25 23:39:43;;;;;;;;;;;;;;;12.40;84.28;102128.50;10332076;28;96927;-78
2024/01/25 23:44:48;;;;;;;;;;;;;;;12.44;83.97;102127.56;10354612;28;97284;-78
2024/01/25 23:49:51;;;;;;;;;;;;;;;12.42;84.03;102140.78;10373067;28;97326;-78
2024/01/25 23:54:58;;;;;;;;;;;;;;;12.32;84.54;102135.69;10362204;28;97394;-78
